sensor_id;sensor_type;location;lat;lon;timestamp;P1;durP1;ratioP1;P2;durP2;ratioP2
17985;SDS011;9118;48.122;11.546;2023-06-26T00:01:32;9.98;;;7.68;;
17985;SDS011;9118;48.122;11.546;2023-06-26T00:04:00;8.50;;;7.60;;
17985;SDS011;9118;48.122;11.546;2023-06-26T00:06:27;9.23;;;8.02;;
17985;SDS011;9118;48.122;11.546;2023-06-26T00:08:55;10.23;;;7.80;;
17985;SDS011;9118;48.122;11.546;2023-06-26T00:11:23;11.10;;;7.80;;
17985;SDS011;9118;48.122;11.546;2023-06-26T00:13:53;9.77;;;8.38;;
17985;SDS011;9118;48.122;11.546;2023-06-26T00:16:20;10.07;;;8.98;;
17985;SDS011;9118;48.122;11.546;2023-06-26T00:18:47;10.27;;;8.15;;
17985;SDS011;9118;48.122;11.546;2023-06-26T00:21:15;11.18;;;8.20;;
17985;SDS011;9118;48.122;11.546;2023-06-26T00:23:42;9.48;;;7.85;;
17985;SDS011;9118;48.122;11.546;2023-06-26T00:26:09;10.35;;;8.73;;
17985;SDS011;9118;48.122;11.546;2023-06-26T00:28:36;10.67;;;7.40;;
17985;SDS011;9118;48.122;11.546;2023-06-26T00:31:05;9.63;;;8.15;;
17985;SDS011;9118;48.122;11.546;2023-06-26T00:33:32;10.40;;;8.30;;
17985;SDS011;9118;48.122;11.546;2023-06-26T00:35:59;9.48;;;8.38;;
17985;SDS011;9118;48.122;11.546;2023-06-26T00:38:26;9.38;;;8.30;;
17985;SDS011;9118;48.122;11.546;2023-06-26T00:40:54;10.38;;;8.60;;
17985;SDS011;9118;48.122;11.546;2023-06-26T00:43:21;8.83;;;7.63;;
17985;SDS011;9118;48.122;11.546;2023-06-26T00:45:48;10.63;;;8.77;;
17985;SDS011;9118;48.122;11.546;2023-06-26T00:48:17;12.20;;;8.60;;
17985;SDS011;9118;48.122;11.546;2023-06-26T00:50:44;9.23;;;8.13;;
17985;SDS011;9118;48.122;11.546;2023-06-26T00:53:11;11.05;;;8.10;;
17985;SDS011;9118;48.122;11.546;2023-06-26T00:55:39;11.05;;;7.63;;
17985;SDS011;9118;48.122;11.546;2023-06-26T00:58:06;10.85;;;8.30;;
17985;SDS011;9118;48.122;11.546;2023-06-26T01:00:33;9.23;;;8.10;;
17985;SDS011;9118;48.122;11.546;2023-06-26T01:03:00;10.13;;;8.07;;
17985;SDS011;9118;48.122;11.546;2023-06-26T01:05:29;9.02;;;7.28;;
17985;SDS011;9118;48.122;11.546;2023-06-26T01:07:56;10.13;;;8.23;;
17985;SDS011;9118;48.122;11.546;2023-06-26T01:10:24;9.07;;;7.73;;
17985;SDS011;9118;48.122;11.546;2023-06-26T01:12:54;9.25;;;8.25;;
17985;SDS011;9118;48.122;11.546;2023-06-26T01:15:21;11.38;;;8.23;;
17985;SDS011;9118;48.122;11.546;2023-06-26T01:17:48;10.82;;;8.38;;
17985;SDS011;9118;48.122;11.546;2023-06-26T01:20:16;9.87;;;7.97;;
17985;SDS011;9118;48.122;11.546;2023-06-26T01:22:47;9.68;;;8.00;;
17985;SDS011;9118;48.122;11.546;2023-06-26T01:25:25;9.82;;;8.30;;
17985;SDS011;9118;48.122;11.546;2023-06-26T01:28:05;9.00;;;7.63;;
17985;SDS011;9118;48.122;11.546;2023-06-26T01:30:34;9.30;;;7.93;;
17985;SDS011;9118;48.122;11.546;2023-06-26T01:33:10;8.85;;;7.78;;
17985;SDS011;9118;48.122;11.546;2023-06-26T01:35:37;10.53;;;8.50;;
17985;SDS011;9118;48.122;11.546;2023-06-26T01:38:12;9.83;;;8.00;;
17985;SDS011;9118;48.122;11.546;2023-06-26T01:40:40;10.30;;;8.18;;
17985;SDS011;9118;48.122;11.546;2023-06-26T01:43:10;9.68;;;8.15;;
17985;SDS011;9118;48.122;11.546;2023-06-26T01:45:45;10.13;;;7.80;;
17985;SDS011;9118;48.122;11.546;2023-06-26T01:48:13;9.30;;;8.00;;
17985;SDS011;9118;48.122;11.546;2023-06-26T01:50:46;10.10;;;8.33;;
17985;SDS011;9118;48.122;11.546;2023-06-26T01:53:16;11.85;;;8.15;;
17985;SDS011;9118;48.122;11.546;2023-06-26T01:55:45;12.32;;;8.40;;
17985;SDS011;9118;48.122;11.546;2023-06-26T01:58:16;11.65;;;8.43;;
17985;SDS011;9118;48.122;11.546;2023-06-26T02:00:47;10.20;;;8.20;;
17985;SDS011;9118;48.122;11.546;2023-06-26T02:03:15;10.20;;;8.07;;
17985;SDS011;9118;48.122;11.546;2023-06-26T02:05:42;10.82;;;8.15;;
17985;SDS011;9118;48.122;11.546;2023-06-26T02:08:09;9.35;;;7.78;;
17985;SDS011;9118;48.122;11.546;2023-06-26T02:10:36;9.30;;;7.90;;
17985;SDS011;9118;48.122;11.546;2023-06-26T02:13:03;9.93;;;7.70;;
17985;SDS011;9118;48.122;11.546;2023-06-26T02:15:32;9.60;;;8.10;;
17985;SDS011;9118;48.122;11.546;2023-06-26T02:17:59;9.30;;;8.15;;
17985;SDS011;9118;48.122;11.546;2023-06-26T02:20:26;9.68;;;7.93;;
17985;SDS011;9118;48.122;11.546;2023-06-26T02:22:53;9.50;;;8.18;;
17985;SDS011;9118;48.122;11.546;2023-06-26T02:25:21;9.52;;;8.05;;
17985;SDS011;9118;48.122;11.546;2023-06-26T02:27:48;9.13;;;7.72;;
17985;SDS011;9118;48.122;11.546;2023-06-26T02:30:15;11.07;;;8.27;;
17985;SDS011;9118;48.122;11.546;2023-06-26T02:32:44;10.23;;;8.93;;
17985;SDS011;9118;48.122;11.546;2023-06-26T02:35:11;13.85;;;8.18;;
17985;SDS011;9118;48.122;11.546;2023-06-26T02:37:38;10.10;;;8.27;;
17985;SDS011;9118;48.122;11.546;2023-06-26T02:40:06;11.63;;;8.23;;
17985;SDS011;9118;48.122;11.546;2023-06-26T02:42:34;11.07;;;8.63;;
17985;SDS011;9118;48.122;11.546;2023-06-26T02:45:01;9.60;;;7.72;;
17985;SDS011;9118;48.122;11.546;2023-06-26T02:47:29;10.87;;;8.73;;
17985;SDS011;9118;48.122;11.546;2023-06-26T02:49:57;11.18;;;8.45;;
17985;SDS011;9118;48.122;11.546;2023-06-26T02:52:24;10.23;;;8.60;;
17985;SDS011;9118;48.122;11.546;2023-06-26T02:54:53;11.88;;;8.68;;
17985;SDS011;9118;48.122;11.546;2023-06-26T02:57:20;10.57;;;8.43;;
17985;SDS011;9118;48.122;11.546;2023-06-26T02:59:48;11.55;;;8.90;;
17985;SDS011;9118;48.122;11.546;2023-06-26T03:02:15;11.45;;;8.50;;
17985;SDS011;9118;48.122;11.546;2023-06-26T03:04:42;11.90;;;8.65;;
17985;SDS011;9118;48.122;11.546;2023-06-26T03:07:11;13.52;;;8.32;;
17985;SDS011;9118;48.122;11.546;2023-06-26T03:09:38;10.05;;;8.45;;
17985;SDS011;9118;48.122;11.546;2023-06-26T03:12:05;11.32;;;8.55;;
17985;SDS011;9118;48.122;11.546;2023-06-26T03:14:33;11.63;;;8.60;;
17985;SDS011;9118;48.122;11.546;2023-06-26T03:17:00;10.95;;;8.27;;
17985;SDS011;9118;48.122;11.546;2023-06-26T03:19:28;10.77;;;8.57;;
17985;SDS011;9118;48.122;11.546;2023-06-26T03:21:56;11.38;;;8.80;;
17985;SDS011;9118;48.122;11.546;2023-06-26T03:24:24;9.63;;;8.35;;
17985;SDS011;9118;48.122;11.546;2023-06-26T03:26:51;10.55;;;8.48;;
17985;SDS011;9118;48.122;11.546;2023-06-26T03:29:18;10.73;;;8.50;;
17985;SDS011;9118;48.122;11.546;2023-06-26T03:31:46;10.52;;;8.85;;
17985;SDS011;9118;48.122;11.546;2023-06-26T03:34:13;11.30;;;8.93;;
17985;SDS011;9118;48.122;11.546;2023-06-26T03:36:40;14.60;;;8.98;;
17985;SDS011;9118;48.122;11.546;2023-06-26T03:39:07;10.57;;;8.82;;
17985;SDS011;9118;48.122;11.546;2023-06-26T03:41:36;15.40;;;11.70;;
17985;SDS011;9118;48.122;11.546;2023-06-26T03:44:03;13.45;;;9.38;;
17985;SDS011;9118;48.122;11.546;2023-06-26T03:46:30;10.48;;;8.85;;
17985;SDS011;9118;48.122;11.546;2023-06-26T03:48:57;11.38;;;9.20;;
17985;SDS011;9118;48.122;11.546;2023-06-26T03:51:25;10.07;;;8.23;;
17985;SDS011;9118;48.122;11.546;2023-06-26T03:53:52;11.65;;;8.45;;
17985;SDS011;9118;48.122;11.546;2023-06-26T03:56:19;11.45;;;9.07;;
17985;SDS011;9118;48.122;11.546;2023-06-26T03:58:48;10.77;;;8.27;;
17985;SDS011;9118;48.122;11.546;2023-06-26T04:01:15;11.35;;;8.93;;
17985;SDS011;9118;48.122;11.546;2023-06-26T04:03:42;11.55;;;8.68;;
17985;SDS011;9118;48.122;11.546;2023-06-26T04:06:09;13.70;;;9.00;;
17985;SDS011;9118;48.122;11.546;2023-06-26T04:08:36;11.02;;;8.65;;
17985;SDS011;9118;48.122;11.546;2023-06-26T04:11:04;13.32;;;9.43;;
17985;SDS011;9118;48.122;11.546;2023-06-26T04:13:31;10.88;;;8.65;;
17985;SDS011;9118;48.122;11.546;2023-06-26T04:16:00;12.47;;;8.83;;
17985;SDS011;9118;48.122;11.546;2023-06-26T04:18:27;17.37;;;10.83;;
17985;SDS011;9118;48.122;11.546;2023-06-26T04:21:04;16.05;;;10.43;;
17985;SDS011;9118;48.122;11.546;2023-06-26T04:23:33;11.38;;;8.82;;
17985;SDS011;9118;48.122;11.546;2023-06-26T04:26:00;13.35;;;9.10;;
17985;SDS011;9118;48.122;11.546;2023-06-26T04:28:30;14.05;;;9.73;;
17985;SDS011;9118;48.122;11.546;2023-06-26T04:30:57;32.38;;;11.25;;
17985;SDS011;9118;48.122;11.546;2023-06-26T04:33:26;13.15;;;8.90;;
17985;SDS011;9118;48.122;11.546;2023-06-26T04:35:53;11.47;;;8.53;;
17985;SDS011;9118;48.122;11.546;2023-06-26T04:38:20;12.77;;;9.20;;
17985;SDS011;9118;48.122;11.546;2023-06-26T04:40:48;14.05;;;9.43;;
17985;SDS011;9118;48.122;11.546;2023-06-26T04:43:15;9.98;;;8.25;;
17985;SDS011;9118;48.122;11.546;2023-06-26T04:45:42;11.65;;;8.55;;
17985;SDS011;9118;48.122;11.546;2023-06-26T04:48:10;12.73;;;9.32;;
17985;SDS011;9118;48.122;11.546;2023-06-26T04:50:39;12.80;;;8.98;;
17985;SDS011;9118;48.122;11.546;2023-06-26T04:53:06;11.60;;;8.80;;
17985;SDS011;9118;48.122;11.546;2023-06-26T04:55:34;13.32;;;9.07;;
17985;SDS011;9118;48.122;11.546;2023-06-26T04:58:01;14.88;;;9.55;;
17985;SDS011;9118;48.122;11.546;2023-06-26T05:00:28;14.37;;;10.00;;
17985;SDS011;9118;48.122;11.546;2023-06-26T05:02:56;13.75;;;9.18;;
17985;SDS011;9118;48.122;11.546;2023-06-26T05:05:25;12.07;;;9.23;;
17985;SDS011;9118;48.122;11.546;2023-06-26T05:07:55;12.27;;;8.80;;
17985;SDS011;9118;48.122;11.546;2023-06-26T05:10:22;12.82;;;9.60;;
17985;SDS011;9118;48.122;11.546;2023-06-26T05:12:49;10.70;;;8.85;;
17985;SDS011;9118;48.122;11.546;2023-06-26T05:15:17;11.50;;;8.68;;
17985;SDS011;9118;48.122;11.546;2023-06-26T05:17:44;12.05;;;8.75;;
17985;SDS011;9118;48.122;11.546;2023-06-26T05:20:11;12.07;;;8.82;;
17985;SDS011;9118;48.122;11.546;2023-06-26T05:22:39;11.73;;;8.75;;
17985;SDS011;9118;48.122;11.546;2023-06-26T05:25:09;10.85;;;8.85;;
17985;SDS011;9118;48.122;11.546;2023-06-26T05:27:37;11.85;;;9.02;;
17985;SDS011;9118;48.122;11.546;2023-06-26T05:30:04;13.80;;;10.73;;
17985;SDS011;9118;48.122;11.546;2023-06-26T05:32:32;12.15;;;9.60;;
17985;SDS011;9118;48.122;11.546;2023-06-26T05:35:02;12.70;;;8.82;;
17985;SDS011;9118;48.122;11.546;2023-06-26T05:37:30;14.47;;;9.17;;
17985;SDS011;9118;48.122;11.546;2023-06-26T05:39:58;11.82;;;9.13;;
17985;SDS011;9118;48.122;11.546;2023-06-26T05:42:27;11.05;;;8.20;;
17985;SDS011;9118;48.122;11.546;2023-06-26T05:44:55;10.35;;;7.85;;
17985;SDS011;9118;48.122;11.546;2023-06-26T05:47:22;11.73;;;9.18;;
17985;SDS011;9118;48.122;11.546;2023-06-26T05:49:49;12.35;;;9.15;;
17985;SDS011;9118;48.122;11.546;2023-06-26T05:52:17;12.18;;;9.07;;
17985;SDS011;9118;48.122;11.546;2023-06-26T05:54:44;9.90;;;8.60;;
17985;SDS011;9118;48.122;11.546;2023-06-26T05:57:12;15.60;;;9.50;;
17985;SDS011;9118;48.122;11.546;2023-06-26T05:59:42;11.50;;;8.52;;
17985;SDS011;9118;48.122;11.546;2023-06-26T06:02:09;12.65;;;8.88;;
17985;SDS011;9118;48.122;11.546;2023-06-26T06:04:37;14.75;;;9.43;;
17985;SDS011;9118;48.122;11.546;2023-06-26T06:07:04;10.00;;;8.07;;
17985;SDS011;9118;48.122;11.546;2023-06-26T06:09:31;13.38;;;8.10;;
17985;SDS011;9118;48.122;11.546;2023-06-26T06:11:59;12.73;;;8.30;;
17985;SDS011;9118;48.122;11.546;2023-06-26T06:14:28;9.98;;;8.45;;
17985;SDS011;9118;48.122;11.546;2023-06-26T06:16:57;10.75;;;8.13;;
17985;SDS011;9118;48.122;11.546;2023-06-26T06:19:24;10.00;;;7.78;;
17985;SDS011;9118;48.122;11.546;2023-06-26T06:21:51;10.65;;;8.45;;
17985;SDS011;9118;48.122;11.546;2023-06-26T06:24:19;12.10;;;8.83;;
17985;SDS011;9118;48.122;11.546;2023-06-26T06:26:46;12.25;;;8.23;;
17985;SDS011;9118;48.122;11.546;2023-06-26T06:29:13;9.15;;;7.57;;
17985;SDS011;9118;48.122;11.546;2023-06-26T06:31:40;9.80;;;7.72;;
17985;SDS011;9118;48.122;11.546;2023-06-26T06:34:09;12.20;;;9.00;;
17985;SDS011;9118;48.122;11.546;2023-06-26T06:36:37;15.52;;;7.82;;
17985;SDS011;9118;48.122;11.546;2023-06-26T06:39:04;8.63;;;7.68;;
17985;SDS011;9118;48.122;11.546;2023-06-26T06:41:31;9.63;;;7.45;;
17985;SDS011;9118;48.122;11.546;2023-06-26T06:43:58;8.18;;;7.35;;
17985;SDS011;9118;48.122;11.546;2023-06-26T06:46:26;8.05;;;7.20;;
17985;SDS011;9118;48.122;11.546;2023-06-26T06:48:53;9.20;;;7.38;;
17985;SDS011;9118;48.122;11.546;2023-06-26T06:51:22;9.38;;;7.32;;
17985;SDS011;9118;48.122;11.546;2023-06-26T06:53:49;9.23;;;7.43;;
17985;SDS011;9118;48.122;11.546;2023-06-26T06:56:17;7.72;;;6.93;;
17985;SDS011;9118;48.122;11.546;2023-06-26T06:58:44;8.43;;;7.20;;
17985;SDS011;9118;48.122;11.546;2023-06-26T07:01:12;9.18;;;7.30;;
17985;SDS011;9118;48.122;11.546;2023-06-26T07:03:39;8.25;;;7.43;;
17985;SDS011;9118;48.122;11.546;2023-06-26T07:06:06;9.98;;;7.20;;
17985;SDS011;9118;48.122;11.546;2023-06-26T07:08:35;9.00;;;7.63;;
17985;SDS011;9118;48.122;11.546;2023-06-26T07:11:02;8.65;;;7.25;;
17985;SDS011;9118;48.122;11.546;2023-06-26T07:13:29;8.50;;;7.50;;
17985;SDS011;9118;48.122;11.546;2023-06-26T07:15:56;9.73;;;7.38;;
17985;SDS011;9118;48.122;11.546;2023-06-26T07:18:23;9.65;;;7.97;;
17985;SDS011;9118;48.122;11.546;2023-06-26T07:20:51;8.98;;;7.95;;
17985;SDS011;9118;48.122;11.546;2023-06-26T07:23:18;10.48;;;8.00;;
17985;SDS011;9118;48.122;11.546;2023-06-26T07:25:46;9.02;;;7.85;;
17985;SDS011;9118;48.122;11.546;2023-06-26T07:28:14;9.43;;;8.37;;
17985;SDS011;9118;48.122;11.546;2023-06-26T07:30:41;9.13;;;7.50;;
17985;SDS011;9118;48.122;11.546;2023-06-26T07:33:08;9.10;;;7.68;;
17985;SDS011;9118;48.122;11.546;2023-06-26T07:35:35;9.07;;;8.00;;
17985;SDS011;9118;48.122;11.546;2023-06-26T07:38:03;10.33;;;7.83;;
17985;SDS011;9118;48.122;11.546;2023-06-26T07:40:30;10.82;;;7.50;;
17985;SDS011;9118;48.122;11.546;2023-06-26T07:42:58;11.80;;;8.23;;
17985;SDS011;9118;48.122;11.546;2023-06-26T07:45:25;9.48;;;7.25;;
17985;SDS011;9118;48.122;11.546;2023-06-26T07:47:53;8.27;;;7.43;;
17985;SDS011;9118;48.122;11.546;2023-06-26T07:50:20;8.75;;;7.40;;
17985;SDS011;9118;48.122;11.546;2023-06-26T07:52:49;8.27;;;7.47;;
17985;SDS011;9118;48.122;11.546;2023-06-26T07:55:18;10.40;;;7.75;;
17985;SDS011;9118;48.122;11.546;2023-06-26T07:57:45;9.95;;;8.57;;
17985;SDS011;9118;48.122;11.546;2023-06-26T08:00:14;10.07;;;7.82;;
17985;SDS011;9118;48.122;11.546;2023-06-26T08:02:41;9.98;;;8.00;;
17985;SDS011;9118;48.122;11.546;2023-06-26T08:05:09;9.07;;;7.97;;
17985;SDS011;9118;48.122;11.546;2023-06-26T08:07:36;8.40;;;7.50;;
17985;SDS011;9118;48.122;11.546;2023-06-26T08:10:04;10.15;;;8.07;;
17985;SDS011;9118;48.122;11.546;2023-06-26T08:12:31;8.98;;;7.90;;
17985;SDS011;9118;48.122;11.546;2023-06-26T08:14:59;9.30;;;8.05;;
17985;SDS011;9118;48.122;11.546;2023-06-26T08:17:29;10.27;;;8.20;;
17985;SDS011;9118;48.122;11.546;2023-06-26T08:19:56;8.82;;;7.93;;
17985;SDS011;9118;48.122;11.546;2023-06-26T08:22:23;9.10;;;8.02;;
17985;SDS011;9118;48.122;11.546;2023-06-26T08:24:50;9.10;;;8.20;;
17985;SDS011;9118;48.122;11.546;2023-06-26T08:27:18;8.80;;;7.88;;
17985;SDS011;9118;48.122;11.546;2023-06-26T08:29:45;9.48;;;7.75;;
17985;SDS011;9118;48.122;11.546;2023-06-26T08:32:12;11.35;;;8.40;;
17985;SDS011;9118;48.122;11.546;2023-06-26T08:34:41;8.65;;;7.75;;
17985;SDS011;9118;48.122;11.546;2023-06-26T08:37:08;9.75;;;7.97;;
17985;SDS011;9118;48.122;11.546;2023-06-26T08:39:35;8.38;;;7.50;;
17985;SDS011;9118;48.122;11.546;2023-06-26T08:42:02;8.38;;;7.57;;
17985;SDS011;9118;48.122;11.546;2023-06-26T08:44:29;8.82;;;7.93;;
17985;SDS011;9118;48.122;11.546;2023-06-26T08:46:59;9.75;;;7.75;;
17985;SDS011;9118;48.122;11.546;2023-06-26T08:49:28;8.97;;;7.80;;
17985;SDS011;9118;48.122;11.546;2023-06-26T08:52:06;9.95;;;8.20;;
17985;SDS011;9118;48.122;11.546;2023-06-26T08:54:40;8.20;;;7.40;;
17985;SDS011;9118;48.122;11.546;2023-06-26T08:57:12;8.95;;;8.05;;
17985;SDS011;9118;48.122;11.546;2023-06-26T08:59:44;9.15;;;8.15;;
17985;SDS011;9118;48.122;11.546;2023-06-26T09:02:11;7.78;;;6.97;;
17985;SDS011;9118;48.122;11.546;2023-06-26T09:04:39;7.60;;;6.90;;
17985;SDS011;9118;48.122;11.546;2023-06-26T09:07:09;7.75;;;6.97;;
17985;SDS011;9118;48.122;11.546;2023-06-26T09:09:36;8.60;;;7.07;;
17985;SDS011;9118;48.122;11.546;2023-06-26T09:12:03;8.70;;;7.40;;
17985;SDS011;9118;48.122;11.546;2023-06-26T09:14:30;7.60;;;6.80;;
17985;SDS011;9118;48.122;11.546;2023-06-26T09:16:58;8.48;;;7.30;;
17985;SDS011;9118;48.122;11.546;2023-06-26T09:19:25;7.45;;;6.75;;
17985;SDS011;9118;48.122;11.546;2023-06-26T09:21:52;8.55;;;7.05;;
17985;SDS011;9118;48.122;11.546;2023-06-26T09:24:22;7.68;;;6.97;;
17985;SDS011;9118;48.122;11.546;2023-06-26T09:26:50;7.60;;;6.90;;
17985;SDS011;9118;48.122;11.546;2023-06-26T09:29:19;8.73;;;7.63;;
17985;SDS011;9118;48.122;11.546;2023-06-26T09:31:47;8.35;;;7.07;;
17985;SDS011;9118;48.122;11.546;2023-06-26T09:34:14;8.43;;;7.60;;
17985;SDS011;9118;48.122;11.546;2023-06-26T09:36:42;7.43;;;6.63;;
17985;SDS011;9118;48.122;11.546;2023-06-26T09:39:11;7.22;;;6.50;;
17985;SDS011;9118;48.122;11.546;2023-06-26T09:41:42;6.95;;;6.30;;
17985;SDS011;9118;48.122;11.546;2023-06-26T09:44:10;7.38;;;6.60;;
17985;SDS011;9118;48.122;11.546;2023-06-26T09:46:38;8.57;;;7.25;;
17985;SDS011;9118;48.122;11.546;2023-06-26T09:49:06;6.90;;;6.22;;
17985;SDS011;9118;48.122;11.546;2023-06-26T09:51:36;11.13;;;6.50;;
17985;SDS011;9118;48.122;11.546;2023-06-26T09:54:04;5.82;;;5.32;;
17985;SDS011;9118;48.122;11.546;2023-06-26T09:56:32;8.45;;;6.00;;
17985;SDS011;9118;48.122;11.546;2023-06-26T09:59:02;7.55;;;5.88;;
17985;SDS011;9118;48.122;11.546;2023-06-26T10:01:31;8.52;;;6.22;;
17985;SDS011;9118;48.122;11.546;2023-06-26T10:03:58;7.13;;;5.53;;
17985;SDS011;9118;48.122;11.546;2023-06-26T10:06:27;6.30;;;5.70;;
17985;SDS011;9118;48.122;11.546;2023-06-26T10:08:58;6.68;;;6.05;;
17985;SDS011;9118;48.122;11.546;2023-06-26T10:11:25;6.18;;;5.57;;
17985;SDS011;9118;48.122;11.546;2023-06-26T10:13:59;6.05;;;5.55;;
17985;SDS011;9118;48.122;11.546;2023-06-26T10:16:29;6.22;;;5.55;;
17985;SDS011;9118;48.122;11.546;2023-06-26T10:19:00;6.28;;;5.57;;
17985;SDS011;9118;48.122;11.546;2023-06-26T10:21:29;5.95;;;5.40;;
17985;SDS011;9118;48.122;11.546;2023-06-26T10:23:56;6.22;;;5.40;;
17985;SDS011;9118;48.122;11.546;2023-06-26T10:26:24;5.60;;;5.05;;
17985;SDS011;9118;48.122;11.546;2023-06-26T10:28:52;6.85;;;6.25;;
17985;SDS011;9118;48.122;11.546;2023-06-26T10:31:22;7.78;;;6.13;;
17985;SDS011;9118;48.122;11.546;2023-06-26T10:33:52;6.60;;;6.00;;
17985;SDS011;9118;48.122;11.546;2023-06-26T10:36:20;6.10;;;5.60;;
17985;SDS011;9118;48.122;11.546;2023-06-26T10:38:55;5.90;;;5.40;;
17985;SDS011;9118;48.122;11.546;2023-06-26T10:41:24;6.15;;;5.65;;
17985;SDS011;9118;48.122;11.546;2023-06-26T10:43:52;5.97;;;5.47;;
17985;SDS011;9118;48.122;11.546;2023-06-26T10:46:34;6.80;;;6.20;;
17985;SDS011;9118;48.122;11.546;2023-06-26T10:49:15;6.13;;;5.63;;
17985;SDS011;9118;48.122;11.546;2023-06-26T10:51:46;6.70;;;5.90;;
17985;SDS011;9118;48.122;11.546;2023-06-26T10:54:15;6.43;;;5.82;;
17985;SDS011;9118;48.122;11.546;2023-06-26T10:56:43;6.57;;;5.97;;
17985;SDS011;9118;48.122;11.546;2023-06-26T10:59:13;7.47;;;5.57;;
17985;SDS011;9118;48.122;11.546;2023-06-26T11:01:43;6.45;;;5.85;;
17985;SDS011;9118;48.122;11.546;2023-06-26T11:04:13;5.70;;;5.20;;
17985;SDS011;9118;48.122;11.546;2023-06-26T11:06:41;9.95;;;6.18;;
17985;SDS011;9118;48.122;11.546;2023-06-26T11:09:14;6.28;;;5.75;;
17985;SDS011;9118;48.122;11.546;2023-06-26T11:12:00;7.43;;;5.55;;
17985;SDS011;9118;48.122;11.546;2023-06-26T11:14:33;6.90;;;6.20;;
17985;SDS011;9118;48.122;11.546;2023-06-26T11:17:05;6.90;;;6.30;;
17985;SDS011;9118;48.122;11.546;2023-06-26T11:19:32;6.72;;;6.22;;
17985;SDS011;9118;48.122;11.546;2023-06-26T11:22:01;8.32;;;7.15;;
17985;SDS011;9118;48.122;11.546;2023-06-26T11:24:30;6.45;;;5.82;;
17985;SDS011;9118;48.122;11.546;2023-06-26T11:27:01;6.43;;;5.82;;
17985;SDS011;9118;48.122;11.546;2023-06-26T11:29:31;7.50;;;6.10;;
17985;SDS011;9118;48.122;11.546;2023-06-26T11:31:58;6.78;;;6.18;;
17985;SDS011;9118;48.122;11.546;2023-06-26T11:34:32;6.80;;;6.10;;
17985;SDS011;9118;48.122;11.546;2023-06-26T11:37:00;6.82;;;5.90;;
17985;SDS011;9118;48.122;11.546;2023-06-26T11:39:28;7.00;;;6.20;;
17985;SDS011;9118;48.122;11.546;2023-06-26T11:41:56;7.47;;;6.55;;
17985;SDS011;9118;48.122;11.546;2023-06-26T11:44:23;6.82;;;6.20;;
17985;SDS011;9118;48.122;11.546;2023-06-26T11:46:53;7.13;;;6.43;;
17985;SDS011;9118;48.122;11.546;2023-06-26T11:49:21;7.22;;;6.40;;
17985;SDS011;9118;48.122;11.546;2023-06-26T11:51:52;7.32;;;6.68;;
17985;SDS011;9118;48.122;11.546;2023-06-26T11:54:27;7.47;;;6.88;;
17985;SDS011;9118;48.122;11.546;2023-06-26T11:56:54;7.72;;;7.03;;
17985;SDS011;9118;48.122;11.546;2023-06-26T11:59:35;7.75;;;6.80;;
17985;SDS011;9118;48.122;11.546;2023-06-26T12:02:06;7.63;;;6.50;;
17985;SDS011;9118;48.122;11.546;2023-06-26T12:04:35;8.88;;;6.70;;
17985;SDS011;9118;48.122;11.546;2023-06-26T12:07:05;7.05;;;6.45;;
17985;SDS011;9118;48.122;11.546;2023-06-26T12:09:34;7.93;;;7.03;;
17985;SDS011;9118;48.122;11.546;2023-06-26T12:12:02;8.25;;;6.93;;
17985;SDS011;9118;48.122;11.546;2023-06-26T12:14:29;6.72;;;6.15;;
17985;SDS011;9118;48.122;11.546;2023-06-26T12:17:03;6.43;;;5.90;;
17985;SDS011;9118;48.122;11.546;2023-06-26T12:19:33;7.28;;;6.57;;
17985;SDS011;9118;48.122;11.546;2023-06-26T12:22:05;7.47;;;6.78;;
17985;SDS011;9118;48.122;11.546;2023-06-26T12:24:35;9.82;;;7.00;;
17985;SDS011;9118;48.122;11.546;2023-06-26T12:27:07;8.25;;;6.55;;
17985;SDS011;9118;48.122;11.546;2023-06-26T12:29:34;7.55;;;6.85;;
17985;SDS011;9118;48.122;11.546;2023-06-26T12:32:02;6.82;;;6.20;;
17985;SDS011;9118;48.122;11.546;2023-06-26T12:34:31;7.13;;;6.53;;
17985;SDS011;9118;48.122;11.546;2023-06-26T12:37:00;9.40;;;7.00;;
17985;SDS011;9118;48.122;11.546;2023-06-26T12:39:30;9.05;;;6.38;;
17985;SDS011;9118;48.122;11.546;2023-06-26T12:42:13;7.00;;;6.40;;
17985;SDS011;9118;48.122;11.546;2023-06-26T12:44:41;7.20;;;6.50;;
17985;SDS011;9118;48.122;11.546;2023-06-26T12:47:09;8.05;;;7.35;;
17985;SDS011;9118;48.122;11.546;2023-06-26T12:49:39;8.70;;;6.90;;
17985;SDS011;9118;48.122;11.546;2023-06-26T12:52:07;7.57;;;6.70;;
17985;SDS011;9118;48.122;11.546;2023-06-26T12:54:38;7.80;;;7.07;;
17985;SDS011;9118;48.122;11.546;2023-06-26T12:57:06;7.70;;;7.00;;
17985;SDS011;9118;48.122;11.546;2023-06-26T12:59:34;7.15;;;6.45;;
17985;SDS011;9118;48.122;11.546;2023-06-26T13:02:02;11.07;;;6.65;;
17985;SDS011;9118;48.122;11.546;2023-06-26T13:04:30;7.25;;;6.65;;
17985;SDS011;9118;48.122;11.546;2023-06-26T13:06:57;8.25;;;7.07;;
17985;SDS011;9118;48.122;11.546;2023-06-26T13:09:24;8.07;;;7.28;;
17985;SDS011;9118;48.122;11.546;2023-06-26T13:11:53;7.38;;;6.68;;
17985;SDS011;9118;48.122;11.546;2023-06-26T13:14:20;8.13;;;7.32;;
17985;SDS011;9118;48.122;11.546;2023-06-26T13:16:48;7.82;;;7.00;;
17985;SDS011;9118;48.122;11.546;2023-06-26T13:19:15;7.20;;;6.60;;
17985;SDS011;9118;48.122;11.546;2023-06-26T13:21:42;10.10;;;7.88;;
17985;SDS011;9118;48.122;11.546;2023-06-26T13:24:10;7.97;;;7.13;;
17985;SDS011;9118;48.122;11.546;2023-06-26T13:26:38;8.98;;;8.07;;
17985;SDS011;9118;48.122;11.546;2023-06-26T13:29:06;8.02;;;7.32;;
17985;SDS011;9118;48.122;11.546;2023-06-26T13:31:33;8.80;;;7.38;;
17985;SDS011;9118;48.122;11.546;2023-06-26T13:34:03;7.95;;;7.03;;
17985;SDS011;9118;48.122;11.546;2023-06-26T13:36:30;8.88;;;7.30;;
17985;SDS011;9118;48.122;11.546;2023-06-26T13:38:59;8.18;;;7.47;;
17985;SDS011;9118;48.122;11.546;2023-06-26T13:41:27;9.50;;;7.05;;
17985;SDS011;9118;48.122;11.546;2023-06-26T13:43:55;8.40;;;7.05;;
17985;SDS011;9118;48.122;11.546;2023-06-26T13:46:23;7.60;;;6.90;;
17985;SDS011;9118;48.122;11.546;2023-06-26T13:48:53;7.82;;;7.05;;
17985;SDS011;9118;48.122;11.546;2023-06-26T13:51:20;8.75;;;7.88;;
17985;SDS011;9118;48.122;11.546;2023-06-26T13:53:47;10.02;;;7.57;;
17985;SDS011;9118;48.122;11.546;2023-06-26T13:56:15;8.77;;;7.88;;
17985;SDS011;9118;48.122;11.546;2023-06-26T13:58:42;8.07;;;7.35;;
17985;SDS011;9118;48.122;11.546;2023-06-26T14:01:11;9.05;;;8.07;;
17985;SDS011;9118;48.122;11.546;2023-06-26T14:03:40;9.18;;;8.15;;
17985;SDS011;9118;48.122;11.546;2023-06-26T14:06:09;9.60;;;7.82;;
17985;SDS011;9118;48.122;11.546;2023-06-26T14:08:36;8.30;;;7.50;;
17985;SDS011;9118;48.122;11.546;2023-06-26T14:11:03;8.85;;;7.60;;
17985;SDS011;9118;48.122;11.546;2023-06-26T14:13:31;7.95;;;7.30;;
17985;SDS011;9118;48.122;11.546;2023-06-26T14:15:58;7.72;;;7.03;;
17985;SDS011;9118;48.122;11.546;2023-06-26T14:18:25;8.02;;;7.22;;
17985;SDS011;9118;48.122;11.546;2023-06-26T14:20:54;22.58;;;19.50;;
17985;SDS011;9118;48.122;11.546;2023-06-26T14:23:21;7.60;;;6.90;;
17985;SDS011;9118;48.122;11.546;2023-06-26T14:25:49;6.97;;;6.38;;
17985;SDS011;9118;48.122;11.546;2023-06-26T14:28:16;6.93;;;6.43;;
17985;SDS011;9118;48.122;11.546;2023-06-26T14:30:43;7.35;;;6.65;;
17985;SDS011;9118;48.122;11.546;2023-06-26T14:33:10;7.32;;;6.72;;
17985;SDS011;9118;48.122;11.546;2023-06-26T14:35:39;6.90;;;6.30;;
17985;SDS011;9118;48.122;11.546;2023-06-26T14:38:07;9.25;;;6.40;;
17985;SDS011;9118;48.122;11.546;2023-06-26T14:40:35;6.65;;;5.88;;
17985;SDS011;9118;48.122;11.546;2023-06-26T14:43:02;6.82;;;6.32;;
17985;SDS011;9118;48.122;11.546;2023-06-26T14:45:30;6.72;;;6.13;;
17985;SDS011;9118;48.122;11.546;2023-06-26T14:47:57;6.63;;;6.10;;
17985;SDS011;9118;48.122;11.546;2023-06-26T14:50:26;6.95;;;6.35;;